Date,TemperatureHighF,TemperatureAvgF,TemperatureLowF,DewpointHighF,DewpointAvgF,DewpointLowF,HumidityHigh,HumidityAvg,HumidityLow,PressureMaxIn,PressureMinIn,WindSpeedMaxMPH,WindSpeedAvgMPH,GustSpeedMaxMPH,PrecipitationSumIn
2013-3-1,45.5,41.1,37.6,43.2,34.7,29.5,98,79,60,30.08,30.03,4,1,7,0.01
2013-3-2,48.7,38.6,28.6,32.1,28.8,25.2,87,68,51,30.08,29.95,3,0,4,0.00
2013-3-3,46.6,36.7,25.2,35.3,31.0,22.9,95,81,61,29.96,29.77,2,1,6,0.00
2013-3-4,56.7,41.2,31.3,37.2,33.8,29.5,99,77,46,29.77,29.40,4,1,7,0.00
2013-3-5,70.2,47.2,29.5,47.5,36.6,28.0,99,71,36,29.40,29.24,2,0,5,0.00
2013-3-6,61.0,50.5,42.3,44.5,41.5,36.2,84,72,53,29.24,29.15,2,0,4,0.00
2013-3-7,52.2,48.9,45.9,50.8,47.9,43.2,99,96,84,29.17,29.02,2,0,4,0.45
2013-3-8,52.0,50.4,48.6,51.7,50.1,48.3,99,99,99,29.21,29.04,0,0,2,0.50
2013-3-9,48.6,45.2,40.3,48.3,44.2,36.7,99,97,87,29.33,29.19,1,0,3,0.01
2013-3-10,41.4,38.2,35.1,36.7,32.7,27.1,87,80,72,29.40,29.32,3,1,11,0.08
2013-3-11,35.1,32.8,30.2,28.1,22.8,18.7,76,67,55,29.41,29.37,7,3,21,4.95
2013-3-12,46.6,35.6,29.3,31.1,20.9,14.5,80,57,31,29.49,29.39,5,2,13,1.09
2013-3-13,50.9,39.4,31.5,31.1,27.3,22.6,82,64,35,29.62,29.45,2,1,7,0.10
2013-3-14,55.2,40.3,25.2,40.0,25.9,16.5,96,61,25,29.70,29.60,2,0,4,0.00
2013-3-15,49.6,43.5,36.3,43.3,37.3,23.4,93,79,59,29.60,29.22,4,2,8,0.27
2013-3-16,51.3,45.3,43.3,43.3,41.3,38.2,92,86,72,29.22,28.94,4,2,10,0.15
2013-3-17,64.4,41.3,32.2,62.6,38.2,20.0,99,89,49,28.98,28.81,3,1,98,17.51
2013-3-18,41.0,32.0,29.3,40.2,31.5,28.6,99,98,97,29.01,28.87,0,0,2,0.18
2013-3-19,55.0,47.1,35.8,42.4,38.0,35.5,99,75,49,29.13,29.01,2,1,4,0.00
2013-3-20,55.0,48.8,38.8,37.5,36.1,35.0,86,63,49,29.66,29.11,2,1,5,0.01
2013-3-21,45.0,39.5,35.6,35.0,33.5,32.5,92,80,64,29.69,29.66,4,1,8,0.00
2013-3-22,45.0,45.0,45.0,33.5,33.5,33.5,64,64,64,29.68,29.68,2,2,5,0.00
2013-3-23,45.0,42.1,35.1,34.2,33.6,33.5,96,73,64,29.68,29.51,4,2,12,0.00
2013-3-24,35.2,33.8,32.5,34.1,27.4,21.3,97,78,57,29.60,29.51,4,2,10,0.00
2013-3-25,35.6,34.9,33.8,23.5,22.2,20.5,62,59,55,29.62,29.58,4,2,12,0.00
2013-3-26,37.0,35.2,33.8,23.1,21.8,20.4,62,58,52,29.60,29.54,4,1,8,0.00
2013-3-27,45.1,36.9,31.8,24.7,22.3,19.2,74,56,40,29.55,29.50,6,1,11,0.00
2013-3-28,43.7,37.2,29.3,29.6,22.7,17.0,84,57,41,29.62,29.51,4,1,7,0.00
2013-3-29,46.2,36.9,27.0,28.1,21.4,17.3,76,55,34,29.59,29.45,4,1,8,0.00
2013-3-30,44.8,37.7,31.1,30.3,26.2,22.7,86,64,42,29.64,29.44,3,1,8,0.00
2013-3-31,44.2,36.4,25.0,35.9,23.4,17.9,92,62,38,29.65,29.56,4,2,8,0.01